Главная страница
METAR-TAF:

METAR-TAF

Аэропорты :

Анкара Эсенбога, Турция

широта: 40-07N, долгота: 032-59E, высота над уровнем моря: 953 м

Текущие метеонаблюдения

Эта сводка был подготовлена 43 минут назад, в 22:20 UTC
Ветер 1 Узел переменных направлений
Температура 13°C
Влажность 51%
Давление 1019 hPa
Видимость 10 км и более
Нет облачности ниже 1500 м, и нет кучево-дождевой облачности

METAR: LTAC 212220Z VRB01KT CAVOK 13/03 Q1019 NOSIG

Время: 02:03 (23:03 UTC)

Прогноз

Эта сводка был подготовлена 6 часа и 23 минут назад, в 16:40 UTC
Прогноз действительный с 21-го 18 UTC до 22-го 18 UTC
Ветер 2 Узел переменных направлений
Видимость 10 км и более
Нет облачности ниже 1500 м, и нет кучево-дождевой облачности
изменения
С 22-го 06 UTC до 22-го 08 UTC
Отдельные облака на высоте 4000 фута
изменения
С 22-го 15 UTC до 22-го 17 UTC
Видимость 10 км и более
Нет облачности ниже 1500 м, и нет кучево-дождевой облачности

TAF: LTAC 211640Z 2118/2218 VRB02KT CAVOK BECMG 2206/2208 SCT040 BECMG 2215/2217 CAVOK

Метеонаблюдения и прогнозы для более 4000 аэропортов (сводки METAR и TAF).

Имеющиеся станции представлены на карте желтыми и красными точками.

Чтобы увидеть название станции, наведите на нее мышь.

Затем щелкните, чтобы увидеть метеонаблюдения и метеопрогнозы.

Управление картой: чтобы увеличить масштаб, щелкните зеленые кнопки с черным крестиком; чтобы уменьшить масштаб, щелкните зеленую кнопку с тире; для просмотра соседних карт щелкайте зеленые стрелки.


METAR-TAF: